sensor_id;sensor_type;location;lat;lon;timestamp;pressure;altitude;pressure_sealevel;temperature;humidity
34065;BME280;20339;49.754;20.158;2023-05-23T00:00:40;96437.57;;;12.18;66.90
34065;BME280;20339;49.754;20.158;2023-05-23T00:03:27;96436.70;;;12.01;66.41
34065;BME280;20339;49.754;20.158;2023-05-23T00:06:04;96437.95;;;11.78;66.70
34065;BME280;20339;49.754;20.158;2023-05-23T00:08:38;96438.08;;;11.72;66.87
34065;BME280;20339;49.754;20.158;2023-05-23T00:11:09;96439.04;;;11.69;66.92
34065;BME280;20339;49.754;20.158;2023-05-23T00:13:41;96439.29;;;11.73;67.24
34065;BME280;20339;49.754;20.158;2023-05-23T00:16:13;96436.11;;;11.79;67.35
34065;BME280;20339;49.754;20.158;2023-05-23T00:18:44;96434.72;;;11.81;67.24
34065;BME280;20339;49.754;20.158;2023-05-23T00:21:16;96433.02;;;11.60;67.07
34065;BME280;20339;49.754;20.158;2023-05-23T00:23:47;96434.41;;;11.48;67.61
34065;BME280;20339;49.754;20.158;2023-05-23T00:26:18;96435.92;;;11.39;67.78
34065;BME280;20339;49.754;20.158;2023-05-23T00:28:50;96435.94;;;11.33;68.18
34065;BME280;20339;49.754;20.158;2023-05-23T00:31:21;96435.97;;;11.38;68.27
34065;BME280;20339;49.754;20.158;2023-05-23T00:33:52;96430.36;;;11.42;68.08
34065;BME280;20339;49.754;20.158;2023-05-23T00:36:26;96431.57;;;11.46;68.27
34065;BME280;20339;49.754;20.158;2023-05-23T00:38:58;96433.34;;;11.48;68.08
34065;BME280;20339;49.754;20.158;2023-05-23T00:41:33;96438.80;;;11.45;67.99
34065;BME280;20339;49.754;20.158;2023-05-23T00:44:07;96442.10;;;11.44;67.99
34065;BME280;20339;49.754;20.158;2023-05-23T00:46:38;96438.08;;;11.39;67.99
34065;BME280;20339;49.754;20.158;2023-05-23T00:49:10;96435.60;;;11.37;67.90
34065;BME280;20339;49.754;20.158;2023-05-23T00:51:41;96441.16;;;11.39;68.02
34065;BME280;20339;49.754;20.158;2023-05-23T00:54:14;96440.16;;;11.43;68.26
34065;BME280;20339;49.754;20.158;2023-05-23T00:56:45;96436.21;;;11.44;68.11
34065;BME280;20339;49.754;20.158;2023-05-23T00:59:21;96434.39;;;11.34;67.94
34065;BME280;20339;49.754;20.158;2023-05-23T01:01:53;96427.75;;;11.23;68.01
34065;BME280;20339;49.754;20.158;2023-05-23T01:04:25;96431.55;;;11.19;68.24
34065;BME280;20339;49.754;20.158;2023-05-23T01:06:56;96431.90;;;11.14;68.10
34065;BME280;20339;49.754;20.158;2023-05-23T01:09:29;96431.84;;;11.03;68.22
34065;BME280;20339;49.754;20.158;2023-05-23T01:12:13;96431.23;;;10.95;68.59
34065;BME280;20339;49.754;20.158;2023-05-23T01:14:50;96427.45;;;10.92;68.92
34065;BME280;20339;49.754;20.158;2023-05-23T01:17:28;96424.67;;;10.90;69.11
34065;BME280;20339;49.754;20.158;2023-05-23T01:20:05;96424.33;;;10.89;69.22
34065;BME280;20339;49.754;20.158;2023-05-23T01:23:03;96424.16;;;10.88;69.29
34065;BME280;20339;49.754;20.158;2023-05-23T01:25:51;96423.99;;;10.93;69.48
34065;BME280;20339;49.754;20.158;2023-05-23T01:28:32;96419.77;;;10.95;69.49
34065;BME280;20339;49.754;20.158;2023-05-23T01:31:09;96417.27;;;10.96;69.74
34065;BME280;20339;49.754;20.158;2023-05-23T01:33:43;96422.02;;;11.03;69.64
34065;BME280;20339;49.754;20.158;2023-05-23T01:36:16;96417.51;;;11.06;69.66
34065;BME280;20339;49.754;20.158;2023-05-23T01:38:46;96411.09;;;11.10;69.56
34065;BME280;20339;49.754;20.158;2023-05-23T01:41:18;96411.97;;;11.13;69.71
34065;BME280;20339;49.754;20.158;2023-05-23T01:43:51;96407.77;;;11.24;69.82
34065;BME280;20339;49.754;20.158;2023-05-23T01:46:22;96403.52;;;11.36;69.72
34065;BME280;20339;49.754;20.158;2023-05-23T01:48:56;96404.36;;;11.41;69.53
34065;BME280;20339;49.754;20.158;2023-05-23T01:51:30;96405.12;;;11.39;69.39
34065;BME280;20339;49.754;20.158;2023-05-23T01:54:05;96399.48;;;11.40;69.40
34065;BME280;20339;49.754;20.158;2023-05-23T01:56:37;96400.60;;;11.29;69.27
34065;BME280;20339;49.754;20.158;2023-05-23T01:59:12;96404.39;;;11.27;69.72
34065;BME280;20339;49.754;20.158;2023-05-23T02:01:46;96402.34;;;11.33;69.90
34065;BME280;20339;49.754;20.158;2023-05-23T02:04:17;96403.35;;;11.36;69.87
34065;BME280;20339;49.754;20.158;2023-05-23T02:06:48;96408.05;;;11.28;69.91
34065;BME280;20339;49.754;20.158;2023-05-23T02:09:19;96399.86;;;11.32;70.22
34065;BME280;20339;49.754;20.158;2023-05-23T02:11:50;96399.73;;;11.37;70.32
34065;BME280;20339;49.754;20.158;2023-05-23T02:14:21;96396.85;;;11.35;70.12
34065;BME280;20339;49.754;20.158;2023-05-23T02:16:52;96399.82;;;11.20;69.96
34065;BME280;20339;49.754;20.158;2023-05-23T02:19:23;96398.16;;;11.13;70.29
34065;BME280;20339;49.754;20.158;2023-05-23T02:21:55;96393.88;;;11.17;70.48
34065;BME280;20339;49.754;20.158;2023-05-23T02:24:26;96397.90;;;11.23;70.58
34065;BME280;20339;49.754;20.158;2023-05-23T02:26:57;96393.55;;;11.28;70.46
34065;BME280;20339;49.754;20.158;2023-05-23T02:29:28;96393.36;;;11.33;70.44
34065;BME280;20339;49.754;20.158;2023-05-23T02:31:59;96393.55;;;11.43;70.39
34065;BME280;20339;49.754;20.158;2023-05-23T02:34:30;96384.70;;;11.48;70.27
34065;BME280;20339;49.754;20.158;2023-05-23T02:37:01;96383.17;;;11.51;69.94
34065;BME280;20339;49.754;20.158;2023-05-23T02:39:33;96382.08;;;11.46;69.87
34065;BME280;20339;49.754;20.158;2023-05-23T02:42:04;96381.00;;;11.41;69.87
34065;BME280;20339;49.754;20.158;2023-05-23T02:44:39;96378.08;;;11.41;70.09
34065;BME280;20339;49.754;20.158;2023-05-23T02:47:10;96374.70;;;11.43;70.16
34065;BME280;20339;49.754;20.158;2023-05-23T02:49:41;96376.74;;;11.45;70.13
34065;BME280;20339;49.754;20.158;2023-05-23T02:52:12;96373.85;;;11.46;70.15
34065;BME280;20339;49.754;20.158;2023-05-23T02:54:45;96371.76;;;11.45;69.97
34065;BME280;20339;49.754;20.158;2023-05-23T02:57:16;96369.92;;;11.43;70.06
34065;BME280;20339;49.754;20.158;2023-05-23T02:59:47;96367.11;;;11.46;70.12
34065;BME280;20339;49.754;20.158;2023-05-23T03:02:17;96367.47;;;11.53;70.27
34065;BME280;20339;49.754;20.158;2023-05-23T03:04:50;96365.28;;;11.61;70.14
34065;BME280;20339;49.754;20.158;2023-05-23T03:07:20;96366.30;;;11.66;70.19
34065;BME280;20339;49.754;20.158;2023-05-23T03:09:51;96365.11;;;11.69;70.00
34065;BME280;20339;49.754;20.158;2023-05-23T03:12:22;96363.11;;;11.71;69.96
34065;BME280;20339;49.754;20.158;2023-05-23T03:14:53;96361.00;;;11.76;69.99
34065;BME280;20339;49.754;20.158;2023-05-23T03:17:25;96362.32;;;11.88;70.00
34065;BME280;20339;49.754;20.158;2023-05-23T03:19:56;96361.41;;;11.91;69.77
34065;BME280;20339;49.754;20.158;2023-05-23T03:22:27;96361.08;;;11.95;69.72
34065;BME280;20339;49.754;20.158;2023-05-23T03:24:58;96355.63;;;11.94;69.64
34065;BME280;20339;49.754;20.158;2023-05-23T03:27:29;96355.13;;;11.94;69.73
34065;BME280;20339;49.754;20.158;2023-05-23T03:30:01;96353.45;;;11.97;69.70
34065;BME280;20339;49.754;20.158;2023-05-23T03:32:32;96353.59;;;11.98;69.64
34065;BME280;20339;49.754;20.158;2023-05-23T03:35:03;96354.48;;;12.07;69.68
34065;BME280;20339;49.754;20.158;2023-05-23T03:37:34;96348.98;;;12.15;69.65
34065;BME280;20339;49.754;20.158;2023-05-23T03:40:08;96349.21;;;12.19;69.55
34065;BME280;20339;49.754;20.158;2023-05-23T03:42:41;96346.23;;;12.22;69.49
34065;BME280;20339;49.754;20.158;2023-05-23T03:45:12;96346.20;;;12.35;69.51
34065;BME280;20339;49.754;20.158;2023-05-23T03:47:43;96347.56;;;12.52;69.30
34065;BME280;20339;49.754;20.158;2023-05-23T03:50:14;96345.34;;;12.73;69.12
34065;BME280;20339;49.754;20.158;2023-05-23T03:52:45;96345.59;;;12.86;68.81
34065;BME280;20339;49.754;20.158;2023-05-23T03:55:16;96346.89;;;12.99;68.46
34065;BME280;20339;49.754;20.158;2023-05-23T03:57:53;96339.73;;;13.14;68.27
34065;BME280;20339;49.754;20.158;2023-05-23T04:00:24;96341.48;;;13.27;68.00
34065;BME280;20339;49.754;20.158;2023-05-23T04:02:55;96345.86;;;13.37;67.73
34065;BME280;20339;49.754;20.158;2023-05-23T04:05:26;96339.09;;;13.46;67.47
34065;BME280;20339;49.754;20.158;2023-05-23T04:07:57;96340.63;;;13.57;67.26
34065;BME280;20339;49.754;20.158;2023-05-23T04:10:32;96341.37;;;13.65;67.07
34065;BME280;20339;49.754;20.158;2023-05-23T04:13:03;96342.86;;;13.76;66.98
34065;BME280;20339;49.754;20.158;2023-05-23T04:15:35;96344.97;;;13.87;66.77
34065;BME280;20339;49.754;20.158;2023-05-23T04:18:08;96347.99;;;13.96;66.36
34065;BME280;20339;49.754;20.158;2023-05-23T04:20:38;96348.42;;;14.07;65.94
34065;BME280;20339;49.754;20.158;2023-05-23T04:23:10;96345.36;;;14.15;65.78
34065;BME280;20339;49.754;20.158;2023-05-23T04:25:41;96343.84;;;14.27;65.51
34065;BME280;20339;49.754;20.158;2023-05-23T04:28:12;96342.33;;;14.39;64.95
34065;BME280;20339;49.754;20.158;2023-05-23T04:30:45;96342.48;;;14.50;64.51
34065;BME280;20339;49.754;20.158;2023-05-23T04:33:18;96340.74;;;14.59;64.32
34065;BME280;20339;49.754;20.158;2023-05-23T04:35:58;96338.07;;;14.67;63.64
34065;BME280;20339;49.754;20.158;2023-05-23T04:38:31;96336.45;;;14.74;63.07
34065;BME280;20339;49.754;20.158;2023-05-23T04:41:02;96337.82;;;14.88;63.19
34065;BME280;20339;49.754;20.158;2023-05-23T04:43:34;96330.90;;;15.00;62.25
34065;BME280;20339;49.754;20.158;2023-05-23T04:46:12;96331.16;;;15.16;62.49
34065;BME280;20339;49.754;20.158;2023-05-23T04:48:44;96327.45;;;15.34;62.31
34065;BME280;20339;49.754;20.158;2023-05-23T04:51:15;96328.83;;;15.47;62.09
34065;BME280;20339;49.754;20.158;2023-05-23T04:53:46;96321.55;;;15.57;60.96
34065;BME280;20339;49.754;20.158;2023-05-23T04:56:20;96324.98;;;15.69;60.96
34065;BME280;20339;49.754;20.158;2023-05-23T04:58:51;96326.62;;;15.95;60.50
34065;BME280;20339;49.754;20.158;2023-05-23T05:01:22;96325.89;;;16.67;61.21
34065;BME280;20339;49.754;20.158;2023-05-23T05:03:53;96323.71;;;18.18;59.08
34065;BME280;20339;49.754;20.158;2023-05-23T05:06:24;96320.39;;;19.50;55.15
34065;BME280;20339;49.754;20.158;2023-05-23T05:08:58;96317.57;;;20.76;53.21
34065;BME280;20339;49.754;20.158;2023-05-23T05:11:29;96320.92;;;21.94;51.79
34065;BME280;20339;49.754;20.158;2023-05-23T05:14:00;96323.77;;;23.31;50.60
34065;BME280;20339;49.754;20.158;2023-05-23T05:16:31;96316.02;;;24.02;46.34
34065;BME280;20339;49.754;20.158;2023-05-23T05:19:04;96318.33;;;24.44;46.53
34065;BME280;20339;49.754;20.158;2023-05-23T05:21:35;96312.21;;;25.55;45.55
34065;BME280;20339;49.754;20.158;2023-05-23T05:24:07;96318.08;;;26.55;44.59
34065;BME280;20339;49.754;20.158;2023-05-23T05:26:39;96314.51;;;26.85;40.63
34065;BME280;20339;49.754;20.158;2023-05-23T05:29:10;96313.55;;;26.99;40.95
34065;BME280;20339;49.754;20.158;2023-05-23T05:31:41;96318.67;;;27.75;40.39
34065;BME280;20339;49.754;20.158;2023-05-23T05:34:13;96318.40;;;28.74;39.97
34065;BME280;20339;49.754;20.158;2023-05-23T05:36:45;96316.33;;;29.50;38.10
34065;BME280;20339;49.754;20.158;2023-05-23T05:39:16;96317.98;;;29.39;36.75
34065;BME280;20339;49.754;20.158;2023-05-23T05:41:48;96315.23;;;29.62;36.92
34065;BME280;20339;49.754;20.158;2023-05-23T05:44:19;96312.47;;;30.13;35.49
34065;BME280;20339;49.754;20.158;2023-05-23T05:46:50;96315.80;;;30.10;34.83
34065;BME280;20339;49.754;20.158;2023-05-23T05:49:21;96315.32;;;29.85;33.93
34065;BME280;20339;49.754;20.158;2023-05-23T05:51:55;96317.34;;;29.75;34.21
34065;BME280;20339;49.754;20.158;2023-05-23T05:54:29;96310.21;;;30.27;33.44
34065;BME280;20339;49.754;20.158;2023-05-23T05:57:02;96306.87;;;30.80;33.61
34065;BME280;20339;49.754;20.158;2023-05-23T05:59:34;96306.02;;;31.36;32.80
34065;BME280;20339;49.754;20.158;2023-05-23T06:02:05;96302.27;;;31.70;32.31
34065;BME280;20339;49.754;20.158;2023-05-23T06:04:44;96303.61;;;32.50;31.61
34065;BME280;20339;49.754;20.158;2023-05-23T06:07:15;96298.95;;;32.96;31.46
34065;BME280;20339;49.754;20.158;2023-05-23T06:09:49;96294.81;;;33.75;30.88
34065;BME280;20339;49.754;20.158;2023-05-23T06:12:20;96292.33;;;34.29;30.32
34065;BME280;20339;49.754;20.158;2023-05-23T06:14:51;96288.45;;;34.45;30.01
34065;BME280;20339;49.754;20.158;2023-05-23T06:17:22;96287.52;;;35.47;30.08
34065;BME280;20339;49.754;20.158;2023-05-23T06:19:54;96289.81;;;36.31;28.92
34065;BME280;20339;49.754;20.158;2023-05-23T06:22:25;96286.89;;;36.83;28.44
34065;BME280;20339;49.754;20.158;2023-05-23T06:24:56;96285.19;;;37.79;27.97
34065;BME280;20339;49.754;20.158;2023-05-23T06:27:27;96282.10;;;38.63;27.32
34065;BME280;20339;49.754;20.158;2023-05-23T06:30:04;96281.55;;;39.76;25.91
34065;BME280;20339;49.754;20.158;2023-05-23T06:32:35;96282.45;;;39.90;25.15
34065;BME280;20339;49.754;20.158;2023-05-23T06:35:10;96279.64;;;39.96;24.89
34065;BME280;20339;49.754;20.158;2023-05-23T06:37:41;96280.31;;;40.18;24.79
34065;BME280;20339;49.754;20.158;2023-05-23T06:40:14;96287.52;;;40.96;23.63
34065;BME280;20339;49.754;20.158;2023-05-23T06:42:45;96289.05;;;41.34;23.42
34065;BME280;20339;49.754;20.158;2023-05-23T06:45:17;96290.38;;;42.07;23.74
34065;BME280;20339;49.754;20.158;2023-05-23T06:47:48;96285.34;;;42.89;23.53
34065;BME280;20339;49.754;20.158;2023-05-23T06:50:19;96283.17;;;43.58;20.85
34065;BME280;20339;49.754;20.158;2023-05-23T06:52:50;96280.48;;;41.54;20.07
34065;BME280;20339;49.754;20.158;2023-05-23T06:55:23;96277.36;;;40.26;21.79
34065;BME280;20339;49.754;20.158;2023-05-23T06:57:56;96279.15;;;40.21;22.35
34065;BME280;20339;49.754;20.158;2023-05-23T07:00:27;96274.00;;;39.80;22.06
34065;BME280;20339;49.754;20.158;2023-05-23T07:03:01;96271.04;;;38.89;22.44
34065;BME280;20339;49.754;20.158;2023-05-23T07:05:32;96271.98;;;39.52;22.93
34065;BME280;20339;49.754;20.158;2023-05-23T07:08:07;96274.38;;;38.65;22.08
34065;BME280;20339;49.754;20.158;2023-05-23T07:10:39;96273.14;;;37.59;23.41
34065;BME280;20339;49.754;20.158;2023-05-23T07:13:13;96268.91;;;37.79;23.07
34065;BME280;20339;49.754;20.158;2023-05-23T07:15:44;96269.56;;;37.53;23.49
34065;BME280;20339;49.754;20.158;2023-05-23T07:18:18;96270.02;;;37.50;22.45
34065;BME280;20339;49.754;20.158;2023-05-23T07:20:50;96268.85;;;37.13;24.25
34065;BME280;20339;49.754;20.158;2023-05-23T07:23:24;96266.86;;;38.46;24.23
34065;BME280;20339;49.754;20.158;2023-05-23T07:25:58;96268.04;;;39.44;22.60
34065;BME280;20339;49.754;20.158;2023-05-23T07:28:32;96266.16;;;39.23;22.44
34065;BME280;20339;49.754;20.158;2023-05-23T07:31:04;96268.78;;;39.92;23.40
34065;BME280;20339;49.754;20.158;2023-05-23T07:33:37;96268.89;;;40.99;21.39
34065;BME280;20339;49.754;20.158;2023-05-23T07:36:09;96266.11;;;39.96;21.45
34065;BME280;20339;49.754;20.158;2023-05-23T07:38:40;96270.17;;;40.75;22.58
34065;BME280;20339;49.754;20.158;2023-05-23T07:41:11;96272.98;;;41.55;20.13
34065;BME280;20339;49.754;20.158;2023-05-23T07:43:42;96271.45;;;39.85;19.93
34065;BME280;20339;49.754;20.158;2023-05-23T07:46:13;96268.13;;;38.59;21.76
34065;BME280;20339;49.754;20.158;2023-05-23T07:48:45;96268.84;;;39.46;21.11
34065;BME280;20339;49.754;20.158;2023-05-23T07:51:16;96271.56;;;39.16;21.93
34065;BME280;20339;49.754;20.158;2023-05-23T07:53:50;96270.58;;;39.77;21.84
34065;BME280;20339;49.754;20.158;2023-05-23T07:56:22;96268.41;;;39.86;21.19
34065;BME280;20339;49.754;20.158;2023-05-23T07:58:53;96270.95;;;40.09;22.13
34065;BME280;20339;49.754;20.158;2023-05-23T08:01:24;96273.71;;;40.97;21.66
34065;BME280;20339;49.754;20.158;2023-05-23T08:03:57;96271.72;;;41.37;21.88
34065;BME280;20339;49.754;20.158;2023-05-23T08:06:28;96272.12;;;41.90;20.99
34065;BME280;20339;49.754;20.158;2023-05-23T08:09:00;96271.94;;;42.66;21.47
34065;BME280;20339;49.754;20.158;2023-05-23T08:11:31;96272.56;;;44.03;21.09
34065;BME280;20339;49.754;20.158;2023-05-23T08:14:02;96270.84;;;44.43;18.84
34065;BME280;20339;49.754;20.158;2023-05-23T08:16:34;96274.50;;;44.14;20.11
34065;BME280;20339;49.754;20.158;2023-05-23T08:19:06;96275.05;;;44.59;17.72
34065;BME280;20339;49.754;20.158;2023-05-23T08:21:36;96275.64;;;41.72;17.79
34065;BME280;20339;49.754;20.158;2023-05-23T08:24:07;96272.77;;;40.59;20.47
34065;BME280;20339;49.754;20.158;2023-05-23T08:26:41;96272.70;;;41.94;20.48
34065;BME280;20339;49.754;20.158;2023-05-23T08:29:14;96273.59;;;41.74;19.25
34065;BME280;20339;49.754;20.158;2023-05-23T08:31:48;96276.58;;;41.03;19.79
34065;BME280;20339;49.754;20.158;2023-05-23T08:34:19;96272.72;;;40.69;20.46
34065;BME280;20339;49.754;20.158;2023-05-23T08:36:52;96271.61;;;39.36;20.77
34065;BME280;20339;49.754;20.158;2023-05-23T08:39:23;96267.17;;;37.57;22.70
34065;BME280;20339;49.754;20.158;2023-05-23T08:41:54;96266.48;;;38.01;23.62
34065;BME280;20339;49.754;20.158;2023-05-23T08:44:25;96266.75;;;37.57;22.39
34065;BME280;20339;49.754;20.158;2023-05-23T08:47:01;96269.46;;;36.48;24.09
34065;BME280;20339;49.754;20.158;2023-05-23T08:49:34;96267.58;;;37.35;24.31
34065;BME280;20339;49.754;20.158;2023-05-23T08:52:11;96272.21;;;37.67;24.08
34065;BME280;20339;49.754;20.158;2023-05-23T08:54:42;96269.45;;;36.82;24.08
34065;BME280;20339;49.754;20.158;2023-05-23T08:57:13;96267.21;;;35.32;24.87
34065;BME280;20339;49.754;20.158;2023-05-23T08:59:45;96266.55;;;34.14;25.82
34065;BME280;20339;49.754;20.158;2023-05-23T09:02:17;96267.64;;;32.15;27.74
34065;BME280;20339;49.754;20.158;2023-05-23T09:04:48;96264.52;;;30.77;29.63
34065;BME280;20339;49.754;20.158;2023-05-23T09:07:19;96264.34;;;29.91;30.50
34065;BME280;20339;49.754;20.158;2023-05-23T09:09:53;96263.48;;;29.49;31.45
34065;BME280;20339;49.754;20.158;2023-05-23T09:12:24;96266.14;;;28.31;33.11
34065;BME280;20339;49.754;20.158;2023-05-23T09:14:55;96265.20;;;27.61;33.98
34065;BME280;20339;49.754;20.158;2023-05-23T09:17:27;96269.02;;;26.89;35.78
34065;BME280;20339;49.754;20.158;2023-05-23T09:19:58;96265.42;;;26.36;36.78
34065;BME280;20339;49.754;20.158;2023-05-23T09:22:29;96260.22;;;26.18;37.22
34065;BME280;20339;49.754;20.158;2023-05-23T09:25:00;96262.86;;;26.30;37.19
34065;BME280;20339;49.754;20.158;2023-05-23T09:27:31;96267.27;;;26.68;37.41
34065;BME280;20339;49.754;20.158;2023-05-23T09:30:07;96265.81;;;27.00;36.71
34065;BME280;20339;49.754;20.158;2023-05-23T09:32:39;96270.91;;;27.18;36.48
34065;BME280;20339;49.754;20.158;2023-05-23T09:35:10;96265.59;;;27.25;36.45
34065;BME280;20339;49.754;20.158;2023-05-23T09:37:45;96265.77;;;27.21;35.90
34065;BME280;20339;49.754;20.158;2023-05-23T09:40:17;96257.70;;;26.78;36.90
34065;BME280;20339;49.754;20.158;2023-05-23T09:42:49;96259.10;;;26.74;36.94
34065;BME280;20339;49.754;20.158;2023-05-23T09:45:20;96261.49;;;26.83;37.86
34065;BME280;20339;49.754;20.158;2023-05-23T09:47:58;96260.30;;;26.91;37.37
34065;BME280;20339;49.754;20.158;2023-05-23T09:50:32;96257.65;;;26.96;37.10
34065;BME280;20339;49.754;20.158;2023-05-23T09:53:03;96254.23;;;26.67;36.29
34065;BME280;20339;49.754;20.158;2023-05-23T09:55:34;96250.89;;;26.11;36.13
34065;BME280;20339;49.754;20.158;2023-05-23T09:58:06;96247.67;;;25.73;37.67
34065;BME280;20339;49.754;20.158;2023-05-23T10:00:39;96248.55;;;25.57;38.14
34065;BME280;20339;49.754;20.158;2023-05-23T10:03:12;96244.57;;;25.52;38.85
34065;BME280;20339;49.754;20.158;2023-05-23T10:05:46;96245.23;;;25.41;38.71
34065;BME280;20339;49.754;20.158;2023-05-23T10:08:20;96245.10;;;25.23;39.52
34065;BME280;20339;49.754;20.158;2023-05-23T10:14:20;96242.35;;;24.39;40.59
34065;BME280;20339;49.754;20.158;2023-05-23T10:17:02;96242.47;;;24.05;41.19
34065;BME280;20339;49.754;20.158;2023-05-23T10:19:41;96241.81;;;23.92;41.62
34065;BME280;20339;49.754;20.158;2023-05-23T10:22:14;96241.98;;;23.87;42.05
34065;BME280;20339;49.754;20.158;2023-05-23T10:24:47;96237.30;;;23.74;41.57
34065;BME280;20339;49.754;20.158;2023-05-23T10:27:19;96230.29;;;23.84;42.52
34065;BME280;20339;49.754;20.158;2023-05-23T10:29:50;96228.91;;;23.94;41.66
34065;BME280;20339;49.754;20.158;2023-05-23T10:32:21;96227.35;;;24.01;42.14
34065;BME280;20339;49.754;20.158;2023-05-23T10:34:58;96218.36;;;24.20;42.16
34065;BME280;20339;49.754;20.158;2023-05-23T10:37:34;96217.96;;;24.36;42.32
34065;BME280;20339;49.754;20.158;2023-05-23T10:40:12;96216.83;;;24.52;42.41
34065;BME280;20339;49.754;20.158;2023-05-23T10:42:53;96213.23;;;24.71;42.73
34065;BME280;20339;49.754;20.158;2023-05-23T10:45:28;96209.44;;;24.89;42.68
34065;BME280;20339;49.754;20.158;2023-05-23T10:48:00;96210.39;;;25.06;42.47
34065;BME280;20339;49.754;20.158;2023-05-23T10:50:35;96207.23;;;25.10;41.39
34065;BME280;20339;49.754;20.158;2023-05-23T10:53:09;96209.23;;;25.07;41.94
34065;BME280;20339;49.754;20.158;2023-05-23T10:55:49;96202.08;;;25.25;42.28
34065;BME280;20339;49.754;20.158;2023-05-23T10:58:21;96196.54;;;25.42;42.58
34065;BME280;20339;49.754;20.158;2023-05-23T11:00:56;96195.73;;;25.58;42.69
34065;BME280;20339;49.754;20.158;2023-05-23T11:03:35;96189.70;;;25.70;42.04
34065;BME280;20339;49.754;20.158;2023-05-23T11:06:08;96192.98;;;25.78;41.90
34065;BME280;20339;49.754;20.158;2023-05-23T11:09:04;96185.61;;;25.85;41.74
34065;BME280;20339;49.754;20.158;2023-05-23T11:11:58;96190.52;;;25.92;41.77
34065;BME280;20339;49.754;20.158;2023-05-23T11:14:50;96188.95;;;26.00;42.11
34065;BME280;20339;49.754;20.158;2023-05-23T11:17:32;96185.77;;;26.08;41.99
34065;BME280;20339;49.754;20.158;2023-05-23T11:20:05;96187.79;;;26.01;41.41
34065;BME280;20339;49.754;20.158;2023-05-23T11:22:54;96185.52;;;26.00;41.13
34065;BME280;20339;49.754;20.158;2023-05-23T11:25:41;96176.46;;;25.90;40.36
34065;BME280;20339;49.754;20.158;2023-05-23T11:28:13;96177.19;;;25.23;39.76
34065;BME280;20339;49.754;20.158;2023-05-23T11:30:48;96169.55;;;24.71;40.39
34065;BME280;20339;49.754;20.158;2023-05-23T11:33:19;96162.71;;;24.70;41.18
34065;BME280;20339;49.754;20.158;2023-05-23T11:35:51;96163.80;;;24.67;41.44
34065;BME280;20339;49.754;20.158;2023-05-23T11:38:23;96165.48;;;24.64;41.64
34065;BME280;20339;49.754;20.158;2023-05-23T11:40:54;96160.62;;;24.54;40.98
34065;BME280;20339;49.754;20.158;2023-05-23T11:43:26;96156.63;;;24.33;41.65
34065;BME280;20339;49.754;20.158;2023-05-23T11:46:06;96158.14;;;24.40;42.32
34065;BME280;20339;49.754;20.158;2023-05-23T11:48:37;96159.61;;;24.53;41.70
34065;BME280;20339;49.754;20.158;2023-05-23T11:51:15;96161.30;;;24.66;41.62
34065;BME280;20339;49.754;20.158;2023-05-23T11:53:48;96159.52;;;24.65;41.19
34065;BME280;20339;49.754;20.158;2023-05-23T11:56:20;96157.02;;;24.76;41.96
34065;BME280;20339;49.754;20.158;2023-05-23T11:58:53;96154.61;;;24.94;41.78
34065;BME280;20339;49.754;20.158;2023-05-23T12:01:29;96150.48;;;25.07;41.48
34065;BME280;20339;49.754;20.158;2023-05-23T12:04:09;96148.55;;;25.09;40.46
34065;BME280;20339;49.754;20.158;2023-05-23T12:06:44;96145.96;;;24.82;40.74
34065;BME280;20339;49.754;20.158;2023-05-23T12:09:16;96151.08;;;24.81;40.92
34065;BME280;20339;49.754;20.158;2023-05-23T12:11:49;96144.98;;;24.88;41.31
34065;BME280;20339;49.754;20.158;2023-05-23T12:14:20;96143.41;;;25.02;41.40
34065;BME280;20339;49.754;20.158;2023-05-23T12:16:53;96145.70;;;25.15;41.35
34065;BME280;20339;49.754;20.158;2023-05-23T12:19:24;96145.88;;;25.25;41.73
34065;BME280;20339;49.754;20.158;2023-05-23T12:21:55;96146.52;;;25.36;41.42
34065;BME280;20339;49.754;20.158;2023-05-23T12:24:26;96143.66;;;25.39;40.83
34065;BME280;20339;49.754;20.158;2023-05-23T12:27:00;96145.59;;;25.40;40.59
34065;BME280;20339;49.754;20.158;2023-05-23T12:29:32;96141.79;;;25.41;40.28
34065;BME280;20339;49.754;20.158;2023-05-23T12:32:06;96141.64;;;25.42;40.50
34065;BME280;20339;49.754;20.158;2023-05-23T12:34:41;96138.15;;;25.41;39.93
34065;BME280;20339;49.754;20.158;2023-05-23T12:37:13;96139.85;;;25.33;40.15
34065;BME280;20339;49.754;20.158;2023-05-23T12:39:45;96135.42;;;25.30;39.22
34065;BME280;20339;49.754;20.158;2023-05-23T12:42:16;96136.10;;;25.19;39.80
34065;BME280;20339;49.754;20.158;2023-05-23T12:44:52;96139.27;;;25.13;39.50
34065;BME280;20339;49.754;20.158;2023-05-23T12:47:23;96137.40;;;25.09;39.82
34065;BME280;20339;49.754;20.158;2023-05-23T12:49:54;96138.48;;;25.11;39.67
34065;BME280;20339;49.754;20.158;2023-05-23T12:52:25;96132.36;;;25.09;39.96
34065;BME280;20339;49.754;20.158;2023-05-23T12:54:56;96131.13;;;25.15;40.66
34065;BME280;20339;49.754;20.158;2023-05-23T12:57:27;96129.11;;;25.13;40.17
34065;BME280;20339;49.754;20.158;2023-05-23T12:59:58;96128.64;;;25.12;40.48
34065;BME280;20339;49.754;20.158;2023-05-23T13:02:29;96128.81;;;25.18;40.53
34065;BME280;20339;49.754;20.158;2023-05-23T13:05:00;96133.02;;;25.25;40.41
34065;BME280;20339;49.754;20.158;2023-05-23T13:07:31;96129.29;;;25.21;40.03
34065;BME280;20339;49.754;20.158;2023-05-23T13:10:02;96132.23;;;25.20;40.13
34065;BME280;20339;49.754;20.158;2023-05-23T13:12:34;96133.16;;;25.22;40.29
34065;BME280;20339;49.754;20.158;2023-05-23T13:15:07;96141.00;;;25.27;40.03
34065;BME280;20339;49.754;20.158;2023-05-23T13:17:38;96146.11;;;25.29;39.98
34065;BME280;20339;49.754;20.158;2023-05-23T13:20:11;96146.25;;;25.14;38.66
34065;BME280;20339;49.754;20.158;2023-05-23T13:22:43;96144.36;;;24.74;38.55